createdAt,value
2017-08-08T00:00:02.683Z,14.9
2017-08-08T00:15:03.435Z,14.9
2017-08-08T00:30:03.398Z,14.9
2017-08-08T00:45:04.235Z,14.8
2017-08-08T01:00:03.097Z,14.7
2017-08-08T01:15:03.269Z,14.6
2017-08-08T01:30:07.782Z,14.6
2017-08-08T01:45:04.045Z,14.5
2017-08-08T02:00:04.620Z,14.3
2017-08-08T02:15:02.781Z,14.4
2017-08-08T02:30:05.854Z,14.2
2017-08-08T02:45:03.788Z,14.2
2017-08-08T03:00:02.603Z,14.2
2017-08-08T03:15:03.455Z,14
2017-08-08T03:30:03.266Z,13.8
2017-08-08T03:45:03.210Z,13.6
2017-08-08T04:00:02.857Z,13.8
2017-08-08T04:15:03.950Z,13.7
2017-08-08T04:30:02.622Z,13.7
2017-08-08T04:45:03.361Z,13.8
2017-08-08T05:00:03.075Z,14.2
2017-08-08T05:15:02.673Z,14.4
2017-08-08T05:30:04.158Z,14.7
2017-08-08T05:45:02.801Z,15.1
2017-08-08T06:00:06.376Z,15.3
2017-08-08T06:15:02.940Z,15.7
2017-08-08T06:30:02.861Z,16.1
2017-08-08T06:45:04.538Z,16.3
2017-08-08T07:00:03.863Z,16.7
2017-08-08T07:15:03.605Z,17.3
2017-08-08T07:30:03.984Z,18
2017-08-08T07:45:03.054Z,18.3
2017-08-08T08:00:02.869Z,18.9
2017-08-08T08:15:04.278Z,20.2
2017-08-08T08:30:02.912Z,21.2
2017-08-08T08:45:02.541Z,22.3
2017-08-08T09:00:03.242Z,23.2
2017-08-08T09:15:02.938Z,24.1
2017-08-08T09:30:02.661Z,25.3
2017-08-08T09:45:03.319Z,26.1
2017-08-08T10:00:02.896Z,26.4
2017-08-08T10:15:04.376Z,26.9
2017-08-08T10:30:05.472Z,27.7
2017-08-08T10:45:03.322Z,26.9
2017-08-08T11:00:02.993Z,27.8
2017-08-08T11:15:02.579Z,29.2
2017-08-08T11:30:03.374Z,28.6
2017-08-08T11:45:03.402Z,28.6
2017-08-08T12:00:02.976Z,28.9
2017-08-08T12:15:02.613Z,29.6
2017-08-08T12:30:03.516Z,29.9
2017-08-08T12:45:05.124Z,28.8
2017-08-08T13:00:02.912Z,27.6
2017-08-08T13:15:02.595Z,27.8
2017-08-08T13:30:03.420Z,28.7
2017-08-08T13:45:02.990Z,28.9
2017-08-08T14:00:02.727Z,29.2
2017-08-08T14:15:03.469Z,29.5
2017-08-08T14:30:04.010Z,28.6
2017-08-08T14:45:02.626Z,28.1
2017-08-08T15:00:03.224Z,28.3
2017-08-08T15:15:02.778Z,26.4
2017-08-08T15:30:03.745Z,26.6
2017-08-08T15:45:03.642Z,25.7
2017-08-08T16:00:03.481Z,23.4
2017-08-08T16:15:03.138Z,23.1
2017-08-08T16:30:02.895Z,23.4
2017-08-08T16:45:03.629Z,23.2
2017-08-08T17:00:04.271Z,22.9
2017-08-08T17:15:02.883Z,22.5
2017-08-08T17:30:02.548Z,22.1
2017-08-08T17:45:03.092Z,21.5
2017-08-08T18:00:02.821Z,21.2
2017-08-08T18:15:03.586Z,20.9
2017-08-08T18:30:03.351Z,20.4
2017-08-08T18:45:02.942Z,20.2
2017-08-08T19:00:02.562Z,20.2
2017-08-08T19:15:03.117Z,19.9
2017-08-08T19:30:02.828Z,19.8
2017-08-08T19:45:03.572Z,19.9
2017-08-08T20:00:03.157Z,19.6
2017-08-08T20:15:02.846Z,19.3
2017-08-08T20:30:03.595Z,18.5
2017-08-08T20:45:03.191Z,18.4
2017-08-08T21:00:02.831Z,18.2
2017-08-08T21:15:03.670Z,17.8
2017-08-08T21:30:03.426Z,18
2017-08-08T21:45:03.002Z,18
2017-08-08T22:00:02.640Z,17.7
2017-08-08T22:15:03.317Z,17.4
2017-08-08T22:30:03.111Z,17.4
2017-08-08T22:45:02.783Z,17.4
2017-08-08T23:00:03.481Z,16.9
2017-08-08T23:15:03.075Z,16.9
2017-08-08T23:30:02.815Z,16.8
2017-08-08T23:45:03.401Z,17.1
